sensor_id;sensor_type;location;lat;lon;timestamp;temperature;humidity
33328;DHT22;19692;52.998;9.116;2024-01-27T00:01:50;5.50;99.90
33328;DHT22;19692;52.998;9.116;2024-01-27T00:04:15;5.50;99.90
33328;DHT22;19692;52.998;9.116;2024-01-27T00:06:41;5.40;99.90
33328;DHT22;19692;52.998;9.116;2024-01-27T00:09:07;5.40;99.90
33328;DHT22;19692;52.998;9.116;2024-01-27T00:11:33;5.30;99.90
33328;DHT22;19692;52.998;9.116;2024-01-27T00:13:58;5.20;99.90
33328;DHT22;19692;52.998;9.116;2024-01-27T00:16:24;5.10;99.90
33328;DHT22;19692;52.998;9.116;2024-01-27T00:18:50;5.00;99.90
33328;DHT22;19692;52.998;9.116;2024-01-27T00:21:16;4.90;99.90
33328;DHT22;19692;52.998;9.116;2024-01-27T00:23:42;4.90;99.90
33328;DHT22;19692;52.998;9.116;2024-01-27T00:26:07;4.80;99.90
33328;DHT22;19692;52.998;9.116;2024-01-27T00:28:33;4.80;99.90
33328;DHT22;19692;52.998;9.116;2024-01-27T00:30:59;4.80;99.90
33328;DHT22;19692;52.998;9.116;2024-01-27T00:33:24;4.70;99.90
33328;DHT22;19692;52.998;9.116;2024-01-27T00:35:51;4.70;99.90
33328;DHT22;19692;52.998;9.116;2024-01-27T00:38:17;4.70;99.90
33328;DHT22;19692;52.998;9.116;2024-01-27T00:40:42;4.60;99.90
33328;DHT22;19692;52.998;9.116;2024-01-27T00:43:08;4.50;99.90
33328;DHT22;19692;52.998;9.116;2024-01-27T00:45:34;4.50;99.90
33328;DHT22;19692;52.998;9.116;2024-01-27T00:47:59;4.50;99.90
33328;DHT22;19692;52.998;9.116;2024-01-27T00:50:25;4.50;99.90
33328;DHT22;19692;52.998;9.116;2024-01-27T00:52:51;4.50;99.90
33328;DHT22;19692;52.998;9.116;2024-01-27T00:55:17;4.50;99.90
33328;DHT22;19692;52.998;9.116;2024-01-27T00:57:43;4.50;99.90
33328;DHT22;19692;52.998;9.116;2024-01-27T01:00:10;4.40;99.90
33328;DHT22;19692;52.998;9.116;2024-01-27T01:02:37;4.40;99.90
33328;DHT22;19692;52.998;9.116;2024-01-27T01:05:03;4.40;99.90
33328;DHT22;19692;52.998;9.116;2024-01-27T01:07:32;4.40;99.90
33328;DHT22;19692;52.998;9.116;2024-01-27T01:09:58;4.40;99.90
33328;DHT22;19692;52.998;9.116;2024-01-27T01:12:24;4.40;99.90
33328;DHT22;19692;52.998;9.116;2024-01-27T01:14:52;4.40;99.90
33328;DHT22;19692;52.998;9.116;2024-01-27T01:17:18;4.30;99.90
33328;DHT22;19692;52.998;9.116;2024-01-27T01:19:47;4.20;99.90
33328;DHT22;19692;52.998;9.116;2024-01-27T01:22:13;4.30;99.90
33328;DHT22;19692;52.998;9.116;2024-01-27T01:24:38;4.20;99.90
33328;DHT22;19692;52.998;9.116;2024-01-27T01:27:04;4.10;99.90
33328;DHT22;19692;52.998;9.116;2024-01-27T01:29:31;4.10;99.90
33328;DHT22;19692;52.998;9.116;2024-01-27T01:31:56;4.00;99.90
33328;DHT22;19692;52.998;9.116;2024-01-27T01:34:22;4.00;99.90
33328;DHT22;19692;52.998;9.116;2024-01-27T01:36:48;4.00;99.90
33328;DHT22;19692;52.998;9.116;2024-01-27T01:39:14;4.00;99.90
33328;DHT22;19692;52.998;9.116;2024-01-27T01:41:40;4.00;99.90
33328;DHT22;19692;52.998;9.116;2024-01-27T01:44:06;4.00;99.90
33328;DHT22;19692;52.998;9.116;2024-01-27T01:46:33;3.90;99.90
33328;DHT22;19692;52.998;9.116;2024-01-27T01:49:03;3.90;99.90
33328;DHT22;19692;52.998;9.116;2024-01-27T01:51:30;3.90;99.90
33328;DHT22;19692;52.998;9.116;2024-01-27T01:53:58;3.80;99.90
33328;DHT22;19692;52.998;9.116;2024-01-27T01:56:25;3.90;99.90
33328;DHT22;19692;52.998;9.116;2024-01-27T01:58:51;3.80;99.90
33328;DHT22;19692;52.998;9.116;2024-01-27T02:01:18;3.80;99.90
33328;DHT22;19692;52.998;9.116;2024-01-27T02:03:54;3.80;99.90
33328;DHT22;19692;52.998;9.116;2024-01-27T02:06:20;3.70;99.90
33328;DHT22;19692;52.998;9.116;2024-01-27T02:08:46;3.70;99.90
33328;DHT22;19692;52.998;9.116;2024-01-27T02:11:12;3.70;99.90
33328;DHT22;19692;52.998;9.116;2024-01-27T02:13:38;3.70;99.90
33328;DHT22;19692;52.998;9.116;2024-01-27T02:16:04;3.60;99.90
33328;DHT22;19692;52.998;9.116;2024-01-27T02:18:30;3.60;99.90
33328;DHT22;19692;52.998;9.116;2024-01-27T02:20:56;3.60;99.90
33328;DHT22;19692;52.998;9.116;2024-01-27T02:23:22;3.60;99.90
33328;DHT22;19692;52.998;9.116;2024-01-27T02:25:48;3.60;99.90
33328;DHT22;19692;52.998;9.116;2024-01-27T02:28:16;3.50;99.90
33328;DHT22;19692;52.998;9.116;2024-01-27T02:30:42;3.60;99.90
33328;DHT22;19692;52.998;9.116;2024-01-27T02:33:08;3.50;99.90
33328;DHT22;19692;52.998;9.116;2024-01-27T02:35:33;3.50;99.90
33328;DHT22;19692;52.998;9.116;2024-01-27T02:37:59;3.50;99.90
33328;DHT22;19692;52.998;9.116;2024-01-27T02:40:25;3.50;99.90
33328;DHT22;19692;52.998;9.116;2024-01-27T02:42:51;3.50;99.90
33328;DHT22;19692;52.998;9.116;2024-01-27T02:45:19;3.50;99.90
33328;DHT22;19692;52.998;9.116;2024-01-27T02:47:44;3.50;99.90
33328;DHT22;19692;52.998;9.116;2024-01-27T02:50:10;3.50;99.90
33328;DHT22;19692;52.998;9.116;2024-01-27T02:52:36;3.50;99.90
33328;DHT22;19692;52.998;9.116;2024-01-27T02:55:02;3.40;99.90
33328;DHT22;19692;52.998;9.116;2024-01-27T02:57:28;3.50;99.90
33328;DHT22;19692;52.998;9.116;2024-01-27T02:59:54;3.50;99.90
33328;DHT22;19692;52.998;9.116;2024-01-27T03:02:19;3.40;99.90
33328;DHT22;19692;52.998;9.116;2024-01-27T03:04:45;3.40;99.90
33328;DHT22;19692;52.998;9.116;2024-01-27T03:07:11;3.40;99.90
33328;DHT22;19692;52.998;9.116;2024-01-27T03:09:36;3.40;99.90
33328;DHT22;19692;52.998;9.116;2024-01-27T03:12:02;3.40;99.90
33328;DHT22;19692;52.998;9.116;2024-01-27T03:14:28;3.30;99.90
33328;DHT22;19692;52.998;9.116;2024-01-27T03:16:54;3.40;99.90
33328;DHT22;19692;52.998;9.116;2024-01-27T03:19:20;3.40;99.90
33328;DHT22;19692;52.998;9.116;2024-01-27T03:21:46;3.40;99.90
33328;DHT22;19692;52.998;9.116;2024-01-27T03:24:12;3.30;99.90
33328;DHT22;19692;52.998;9.116;2024-01-27T03:26:37;3.30;99.90
33328;DHT22;19692;52.998;9.116;2024-01-27T03:29:03;3.30;99.90
33328;DHT22;19692;52.998;9.116;2024-01-27T03:31:33;3.30;99.90
33328;DHT22;19692;52.998;9.116;2024-01-27T03:34:00;3.30;99.90
33328;DHT22;19692;52.998;9.116;2024-01-27T03:36:26;3.20;99.90
33328;DHT22;19692;52.998;9.116;2024-01-27T03:38:52;3.30;99.90
33328;DHT22;19692;52.998;9.116;2024-01-27T03:41:18;3.30;99.90
33328;DHT22;19692;52.998;9.116;2024-01-27T03:43:44;3.30;99.90
33328;DHT22;19692;52.998;9.116;2024-01-27T03:46:10;3.30;99.90
33328;DHT22;19692;52.998;9.116;2024-01-27T03:48:35;3.20;99.90
33328;DHT22;19692;52.998;9.116;2024-01-27T03:51:01;3.20;99.90
33328;DHT22;19692;52.998;9.116;2024-01-27T03:53:28;3.20;99.90
33328;DHT22;19692;52.998;9.116;2024-01-27T03:55:54;3.20;99.90
33328;DHT22;19692;52.998;9.116;2024-01-27T03:58:19;3.20;99.90
33328;DHT22;19692;52.998;9.116;2024-01-27T04:00:46;3.30;99.90
33328;DHT22;19692;52.998;9.116;2024-01-27T04:03:12;3.20;99.90
33328;DHT22;19692;52.998;9.116;2024-01-27T04:05:37;3.20;99.90
33328;DHT22;19692;52.998;9.116;2024-01-27T04:08:05;3.20;99.90
33328;DHT22;19692;52.998;9.116;2024-01-27T04:10:31;3.10;99.90
33328;DHT22;19692;52.998;9.116;2024-01-27T04:12:57;3.10;99.90
33328;DHT22;19692;52.998;9.116;2024-01-27T04:15:23;3.10;99.90
33328;DHT22;19692;52.998;9.116;2024-01-27T04:17:49;3.10;99.90
33328;DHT22;19692;52.998;9.116;2024-01-27T04:20:14;3.10;99.90
33328;DHT22;19692;52.998;9.116;2024-01-27T04:22:40;3.10;99.90
33328;DHT22;19692;52.998;9.116;2024-01-27T04:25:06;3.10;99.90
33328;DHT22;19692;52.998;9.116;2024-01-27T04:27:37;3.00;99.90
33328;DHT22;19692;52.998;9.116;2024-01-27T04:30:11;3.00;99.90
33328;DHT22;19692;52.998;9.116;2024-01-27T04:32:38;3.00;99.90
33328;DHT22;19692;52.998;9.116;2024-01-27T04:35:04;3.10;99.90
33328;DHT22;19692;52.998;9.116;2024-01-27T04:37:33;3.10;99.90
33328;DHT22;19692;52.998;9.116;2024-01-27T04:39:59;3.00;99.90
33328;DHT22;19692;52.998;9.116;2024-01-27T04:42:25;3.10;99.90
33328;DHT22;19692;52.998;9.116;2024-01-27T04:44:50;3.10;99.90
33328;DHT22;19692;52.998;9.116;2024-01-27T04:47:16;3.10;99.90
33328;DHT22;19692;52.998;9.116;2024-01-27T04:49:42;3.10;99.90
33328;DHT22;19692;52.998;9.116;2024-01-27T04:52:08;3.00;99.90
33328;DHT22;19692;52.998;9.116;2024-01-27T04:54:33;3.00;99.90
33328;DHT22;19692;52.998;9.116;2024-01-27T04:56:59;3.00;99.90
33328;DHT22;19692;52.998;9.116;2024-01-27T04:59:25;3.00;99.90
33328;DHT22;19692;52.998;9.116;2024-01-27T05:01:50;3.00;99.90
33328;DHT22;19692;52.998;9.116;2024-01-27T05:04:16;3.00;99.90
33328;DHT22;19692;52.998;9.116;2024-01-27T05:06:45;3.00;99.90
33328;DHT22;19692;52.998;9.116;2024-01-27T05:09:11;3.00;99.90
33328;DHT22;19692;52.998;9.116;2024-01-27T05:11:37;3.00;99.90
33328;DHT22;19692;52.998;9.116;2024-01-27T05:14:03;3.00;99.90
33328;DHT22;19692;52.998;9.116;2024-01-27T05:16:29;2.90;99.90
33328;DHT22;19692;52.998;9.116;2024-01-27T05:18:55;2.90;99.90
33328;DHT22;19692;52.998;9.116;2024-01-27T05:21:20;2.90;99.90
33328;DHT22;19692;52.998;9.116;2024-01-27T05:23:46;2.90;99.90
33328;DHT22;19692;52.998;9.116;2024-01-27T05:26:12;2.90;99.90
33328;DHT22;19692;52.998;9.116;2024-01-27T05:28:38;2.90;99.90
33328;DHT22;19692;52.998;9.116;2024-01-27T05:31:07;2.90;99.90
33328;DHT22;19692;52.998;9.116;2024-01-27T05:33:34;2.90;99.90
33328;DHT22;19692;52.998;9.116;2024-01-27T05:36:00;2.80;99.90
33328;DHT22;19692;52.998;9.116;2024-01-27T05:38:26;2.90;99.90
33328;DHT22;19692;52.998;9.116;2024-01-27T05:40:53;2.80;99.90
33328;DHT22;19692;52.998;9.116;2024-01-27T05:43:19;2.80;99.90
33328;DHT22;19692;52.998;9.116;2024-01-27T05:45:46;2.80;99.90
33328;DHT22;19692;52.998;9.116;2024-01-27T05:48:12;2.80;99.90
33328;DHT22;19692;52.998;9.116;2024-01-27T05:50:42;2.80;99.90
33328;DHT22;19692;52.998;9.116;2024-01-27T05:53:07;2.80;99.90
33328;DHT22;19692;52.998;9.116;2024-01-27T05:55:33;2.80;99.90
33328;DHT22;19692;52.998;9.116;2024-01-27T05:57:59;2.80;99.90
33328;DHT22;19692;52.998;9.116;2024-01-27T06:00:25;2.80;99.90
33328;DHT22;19692;52.998;9.116;2024-01-27T06:02:50;2.70;99.90
33328;DHT22;19692;52.998;9.116;2024-01-27T06:05:16;2.70;99.90
33328;DHT22;19692;52.998;9.116;2024-01-27T06:07:42;2.70;99.90
33328;DHT22;19692;52.998;9.116;2024-01-27T06:10:09;2.70;99.90
33328;DHT22;19692;52.998;9.116;2024-01-27T06:12:35;2.60;99.90
33328;DHT22;19692;52.998;9.116;2024-01-27T06:15:01;2.60;99.90
33328;DHT22;19692;52.998;9.116;2024-01-27T06:17:28;2.50;99.90
33328;DHT22;19692;52.998;9.116;2024-01-27T06:19:54;2.40;99.90
33328;DHT22;19692;52.998;9.116;2024-01-27T06:22:19;2.40;99.90
33328;DHT22;19692;52.998;9.116;2024-01-27T06:24:45;2.30;99.90
33328;DHT22;19692;52.998;9.116;2024-01-27T06:27:11;2.30;99.90
33328;DHT22;19692;52.998;9.116;2024-01-27T06:29:37;2.30;99.90
33328;DHT22;19692;52.998;9.116;2024-01-27T06:32:03;2.20;99.90
33328;DHT22;19692;52.998;9.116;2024-01-27T06:34:29;2.20;99.90
33328;DHT22;19692;52.998;9.116;2024-01-27T06:36:55;2.20;99.90
33328;DHT22;19692;52.998;9.116;2024-01-27T06:39:21;2.20;99.90
33328;DHT22;19692;52.998;9.116;2024-01-27T06:41:47;2.10;99.90
33328;DHT22;19692;52.998;9.116;2024-01-27T06:44:13;2.10;99.90
33328;DHT22;19692;52.998;9.116;2024-01-27T06:46:39;2.10;99.90
33328;DHT22;19692;52.998;9.116;2024-01-27T06:49:10;2.10;99.90
33328;DHT22;19692;52.998;9.116;2024-01-27T06:51:35;2.10;99.90
33328;DHT22;19692;52.998;9.116;2024-01-27T06:54:01;2.10;99.90
33328;DHT22;19692;52.998;9.116;2024-01-27T06:56:27;2.10;99.90
33328;DHT22;19692;52.998;9.116;2024-01-27T06:58:53;2.20;99.90
33328;DHT22;19692;52.998;9.116;2024-01-27T07:01:18;2.10;99.90
33328;DHT22;19692;52.998;9.116;2024-01-27T07:03:44;2.10;99.90
33328;DHT22;19692;52.998;9.116;2024-01-27T07:06:10;2.10;99.90
33328;DHT22;19692;52.998;9.116;2024-01-27T07:08:35;2.10;99.90
33328;DHT22;19692;52.998;9.116;2024-01-27T07:11:01;2.10;99.90
33328;DHT22;19692;52.998;9.116;2024-01-27T07:13:27;2.10;99.90
33328;DHT22;19692;52.998;9.116;2024-01-27T07:15:57;2.10;99.90
33328;DHT22;19692;52.998;9.116;2024-01-27T07:18:24;2.10;99.90
33328;DHT22;19692;52.998;9.116;2024-01-27T07:20:50;2.10;99.90
33328;DHT22;19692;52.998;9.116;2024-01-27T07:23:17;2.10;99.90
33328;DHT22;19692;52.998;9.116;2024-01-27T07:25:43;2.10;99.90
33328;DHT22;19692;52.998;9.116;2024-01-27T07:28:09;2.00;99.90
33328;DHT22;19692;52.998;9.116;2024-01-27T07:30:35;2.00;99.90
33328;DHT22;19692;52.998;9.116;2024-01-27T07:33:02;2.00;99.90
33328;DHT22;19692;52.998;9.116;2024-01-27T07:35:28;2.00;99.90
33328;DHT22;19692;52.998;9.116;2024-01-27T07:37:54;2.00;99.90
33328;DHT22;19692;52.998;9.116;2024-01-27T07:40:19;2.00;99.90
33328;DHT22;19692;52.998;9.116;2024-01-27T07:42:45;2.10;99.90
33328;DHT22;19692;52.998;9.116;2024-01-27T07:45:11;2.10;99.90
33328;DHT22;19692;52.998;9.116;2024-01-27T07:47:37;2.10;99.90
33328;DHT22;19692;52.998;9.116;2024-01-27T07:50:03;2.10;99.90
33328;DHT22;19692;52.998;9.116;2024-01-27T07:52:28;2.10;99.90
33328;DHT22;19692;52.998;9.116;2024-01-27T07:54:54;2.10;99.90
33328;DHT22;19692;52.998;9.116;2024-01-27T07:57:21;2.20;99.90
33328;DHT22;19692;52.998;9.116;2024-01-27T07:59:49;2.20;99.90
33328;DHT22;19692;52.998;9.116;2024-01-27T08:02:15;2.20;99.90
33328;DHT22;19692;52.998;9.116;2024-01-27T08:04:40;2.40;99.90
33328;DHT22;19692;52.998;9.116;2024-01-27T08:07:06;2.30;99.90
33328;DHT22;19692;52.998;9.116;2024-01-27T08:09:35;2.50;99.90
33328;DHT22;19692;52.998;9.116;2024-01-27T08:12:01;2.50;99.90
33328;DHT22;19692;52.998;9.116;2024-01-27T08:14:28;2.50;99.90
33328;DHT22;19692;52.998;9.116;2024-01-27T08:16:55;2.50;99.90
33328;DHT22;19692;52.998;9.116;2024-01-27T08:19:23;2.30;99.90
33328;DHT22;19692;52.998;9.116;2024-01-27T08:21:49;2.40;99.90
33328;DHT22;19692;52.998;9.116;2024-01-27T08:24:15;2.30;99.90
33328;DHT22;19692;52.998;9.116;2024-01-27T08:26:41;2.30;99.90
33328;DHT22;19692;52.998;9.116;2024-01-27T08:29:10;2.30;99.90
33328;DHT22;19692;52.998;9.116;2024-01-27T08:31:36;2.30;99.90
33328;DHT22;19692;52.998;9.116;2024-01-27T08:34:04;2.40;99.90
33328;DHT22;19692;52.998;9.116;2024-01-27T08:36:29;2.50;99.90
33328;DHT22;19692;52.998;9.116;2024-01-27T08:38:55;2.50;99.90
33328;DHT22;19692;52.998;9.116;2024-01-27T08:41:22;2.50;99.90
33328;DHT22;19692;52.998;9.116;2024-01-27T08:43:47;2.60;99.90
33328;DHT22;19692;52.998;9.116;2024-01-27T08:46:13;2.70;99.90
33328;DHT22;19692;52.998;9.116;2024-01-27T08:48:40;2.70;99.90
33328;DHT22;19692;52.998;9.116;2024-01-27T08:51:08;2.90;99.90
33328;DHT22;19692;52.998;9.116;2024-01-27T08:53:35;2.90;99.90
33328;DHT22;19692;52.998;9.116;2024-01-27T08:56:01;2.90;99.90
33328;DHT22;19692;52.998;9.116;2024-01-27T08:58:27;3.00;99.90
33328;DHT22;19692;52.998;9.116;2024-01-27T09:00:52;3.00;99.90
33328;DHT22;19692;52.998;9.116;2024-01-27T09:03:19;3.10;99.90
33328;DHT22;19692;52.998;9.116;2024-01-27T09:05:46;3.20;99.90
33328;DHT22;19692;52.998;9.116;2024-01-27T09:08:12;3.30;99.90
33328;DHT22;19692;52.998;9.116;2024-01-27T09:10:38;3.30;99.90
33328;DHT22;19692;52.998;9.116;2024-01-27T09:13:04;3.40;99.90
33328;DHT22;19692;52.998;9.116;2024-01-27T09:15:30;3.50;99.90
33328;DHT22;19692;52.998;9.116;2024-01-27T09:17:56;3.60;99.90
33328;DHT22;19692;52.998;9.116;2024-01-27T09:20:22;3.70;99.90
33328;DHT22;19692;52.998;9.116;2024-01-27T09:22:48;3.70;99.90
33328;DHT22;19692;52.998;9.116;2024-01-27T09:25:16;3.80;99.90
33328;DHT22;19692;52.998;9.116;2024-01-27T09:27:41;3.90;99.90
33328;DHT22;19692;52.998;9.116;2024-01-27T09:30:08;3.90;99.90
33328;DHT22;19692;52.998;9.116;2024-01-27T09:32:34;4.00;99.90
33328;DHT22;19692;52.998;9.116;2024-01-27T09:34:59;4.10;99.90
33328;DHT22;19692;52.998;9.116;2024-01-27T09:37:25;4.20;99.90
33328;DHT22;19692;52.998;9.116;2024-01-27T09:39:51;4.30;99.90
33328;DHT22;19692;52.998;9.116;2024-01-27T09:42:20;4.30;99.90
33328;DHT22;19692;52.998;9.116;2024-01-27T09:44:48;4.40;99.90
33328;DHT22;19692;52.998;9.116;2024-01-27T09:47:15;4.50;99.90
33328;DHT22;19692;52.998;9.116;2024-01-27T09:49:42;4.60;99.90
33328;DHT22;19692;52.998;9.116;2024-01-27T09:52:08;4.70;99.90
33328;DHT22;19692;52.998;9.116;2024-01-27T09:54:35;4.70;99.90
33328;DHT22;19692;52.998;9.116;2024-01-27T09:57:01;4.80;99.90
33328;DHT22;19692;52.998;9.116;2024-01-27T09:59:28;5.00;99.90
33328;DHT22;19692;52.998;9.116;2024-01-27T10:01:56;5.20;99.90
33328;DHT22;19692;52.998;9.116;2024-01-27T10:04:24;5.30;99.90
33328;DHT22;19692;52.998;9.116;2024-01-27T10:06:50;5.40;99.90
33328;DHT22;19692;52.998;9.116;2024-01-27T10:09:17;5.50;99.90
33328;DHT22;19692;52.998;9.116;2024-01-27T10:11:46;5.70;99.90
33328;DHT22;19692;52.998;9.116;2024-01-27T10:14:13;5.90;99.90
33328;DHT22;19692;52.998;9.116;2024-01-27T10:16:43;6.00;99.90
33328;DHT22;19692;52.998;9.116;2024-01-27T10:19:19;6.20;99.90
33328;DHT22;19692;52.998;9.116;2024-01-27T10:21:47;6.10;99.90
33328;DHT22;19692;52.998;9.116;2024-01-27T10:24:13;6.40;99.90
33328;DHT22;19692;52.998;9.116;2024-01-27T10:26:39;6.60;99.90
33328;DHT22;19692;52.998;9.116;2024-01-27T10:29:05;6.80;99.90
33328;DHT22;19692;52.998;9.116;2024-01-27T10:31:33;7.00;99.90
33328;DHT22;19692;52.998;9.116;2024-01-27T10:34:00;7.20;99.90
33328;DHT22;19692;52.998;9.116;2024-01-27T10:36:37;7.40;99.90
33328;DHT22;19692;52.998;9.116;2024-01-27T10:39:14;7.40;99.90
33328;DHT22;19692;52.998;9.116;2024-01-27T10:41:50;7.60;99.90
33328;DHT22;19692;52.998;9.116;2024-01-27T10:44:17;7.80;99.90
33328;DHT22;19692;52.998;9.116;2024-01-27T10:46:45;7.80;99.90
33328;DHT22;19692;52.998;9.116;2024-01-27T10:49:14;7.70;99.90
33328;DHT22;19692;52.998;9.116;2024-01-27T10:51:46;7.80;99.90
33328;DHT22;19692;52.998;9.116;2024-01-27T10:54:24;7.90;99.90
33328;DHT22;19692;52.998;9.116;2024-01-27T10:56:57;8.00;99.90
33328;DHT22;19692;52.998;9.116;2024-01-27T10:59:26;8.10;99.90
33328;DHT22;19692;52.998;9.116;2024-01-27T11:01:54;8.30;99.90
33328;DHT22;19692;52.998;9.116;2024-01-27T11:04:20;8.40;99.90
33328;DHT22;19692;52.998;9.116;2024-01-27T11:06:48;8.30;99.90
33328;DHT22;19692;52.998;9.116;2024-01-27T11:09:14;8.40;99.90
33328;DHT22;19692;52.998;9.116;2024-01-27T11:11:42;8.50;99.90
33328;DHT22;19692;52.998;9.116;2024-01-27T11:14:10;8.70;99.90
33328;DHT22;19692;52.998;9.116;2024-01-27T11:16:36;8.70;99.90
33328;DHT22;19692;52.998;9.116;2024-01-27T11:19:04;8.60;99.90
33328;DHT22;19692;52.998;9.116;2024-01-27T11:21:30;8.50;99.90
33328;DHT22;19692;52.998;9.116;2024-01-27T11:23:56;8.70;99.90
33328;DHT22;19692;52.998;9.116;2024-01-27T11:26:22;8.90;99.90
33328;DHT22;19692;52.998;9.116;2024-01-27T11:28:49;9.30;99.90
33328;DHT22;19692;52.998;9.116;2024-01-27T11:31:17;9.40;99.90
33328;DHT22;19692;52.998;9.116;2024-01-27T11:33:47;9.50;99.90
33328;DHT22;19692;52.998;9.116;2024-01-27T11:36:23;9.50;99.90
33328;DHT22;19692;52.998;9.116;2024-01-27T11:38:52;9.40;99.90
33328;DHT22;19692;52.998;9.116;2024-01-27T11:41:29;9.60;99.90
33328;DHT22;19692;52.998;9.116;2024-01-27T11:43:59;9.50;99.90
33328;DHT22;19692;52.998;9.116;2024-01-27T11:46:27;9.40;99.90
33328;DHT22;19692;52.998;9.116;2024-01-27T11:48:53;9.40;99.90
33328;DHT22;19692;52.998;9.116;2024-01-27T11:51:19;9.70;99.90
33328;DHT22;19692;52.998;9.116;2024-01-27T11:53:45;9.60;99.90
33328;DHT22;19692;52.998;9.116;2024-01-27T11:56:11;9.70;99.90
33328;DHT22;19692;52.998;9.116;2024-01-27T11:58:37;9.50;99.90
33328;DHT22;19692;52.998;9.116;2024-01-27T12:01:03;9.70;99.90
33328;DHT22;19692;52.998;9.116;2024-01-27T12:03:30;9.70;99.90
33328;DHT22;19692;52.998;9.116;2024-01-27T12:05:55;9.30;99.90
33328;DHT22;19692;52.998;9.116;2024-01-27T12:08:21;9.50;99.90
33328;DHT22;19692;52.998;9.116;2024-01-27T12:10:47;9.60;99.90
33328;DHT22;19692;52.998;9.116;2024-01-27T12:13:13;9.80;99.90
33328;DHT22;19692;52.998;9.116;2024-01-27T12:15:39;9.70;99.90
33328;DHT22;19692;52.998;9.116;2024-01-27T12:18:05;9.70;99.90
33328;DHT22;19692;52.998;9.116;2024-01-27T12:20:31;10.10;99.90
33328;DHT22;19692;52.998;9.116;2024-01-27T12:23:03;10.30;99.90
33328;DHT22;19692;52.998;9.116;2024-01-27T12:25:32;10.00;99.90
33328;DHT22;19692;52.998;9.116;2024-01-27T12:28:05;9.80;99.90
33328;DHT22;19692;52.998;9.116;2024-01-27T12:30:33;9.80;99.90
33328;DHT22;19692;52.998;9.116;2024-01-27T12:32:59;9.80;99.90
33328;DHT22;19692;52.998;9.116;2024-01-27T12:35:26;9.90;99.90
33328;DHT22;19692;52.998;9.116;2024-01-27T12:37:52;10.00;99.90
33328;DHT22;19692;52.998;9.116;2024-01-27T12:40:20;9.90;99.90
33328;DHT22;19692;52.998;9.116;2024-01-27T12:42:47;10.10;99.90
33328;DHT22;19692;52.998;9.116;2024-01-27T12:45:13;10.20;99.90
33328;DHT22;19692;52.998;9.116;2024-01-27T12:47:39;10.20;99.90
33328;DHT22;19692;52.998;9.116;2024-01-27T12:50:06;10.20;99.90
33328;DHT22;19692;52.998;9.116;2024-01-27T12:52:32;10.10;99.90
33328;DHT22;19692;52.998;9.116;2024-01-27T12:54:58;10.40;99.90
33328;DHT22;19692;52.998;9.116;2024-01-27T12:57:24;10.60;99.90
33328;DHT22;19692;52.998;9.116;2024-01-27T12:59:50;10.80;99.90
33328;DHT22;19692;52.998;9.116;2024-01-27T13:02:16;10.80;99.90
33328;DHT22;19692;52.998;9.116;2024-01-27T13:04:42;10.80;99.90
33328;DHT22;19692;52.998;9.116;2024-01-27T13:07:07;11.10;99.90
33328;DHT22;19692;52.998;9.116;2024-01-27T13:09:34;11.00;99.90
33328;DHT22;19692;52.998;9.116;2024-01-27T13:12:00;10.90;99.90
33328;DHT22;19692;52.998;9.116;2024-01-27T13:14:26;10.80;99.90
33328;DHT22;19692;52.998;9.116;2024-01-27T13:16:52;10.60;99.90
33328;DHT22;19692;52.998;9.116;2024-01-27T13:19:19;10.90;99.90
33328;DHT22;19692;52.998;9.116;2024-01-27T13:21:45;10.80;99.90
33328;DHT22;19692;52.998;9.116;2024-01-27T13:24:11;11.10;99.90
33328;DHT22;19692;52.998;9.116;2024-01-27T13:26:37;10.70;99.90
33328;DHT22;19692;52.998;9.116;2024-01-27T13:29:04;10.80;99.90
33328;DHT22;19692;52.998;9.116;2024-01-27T13:31:30;10.80;99.90
33328;DHT22;19692;52.998;9.116;2024-01-27T13:33:56;10.80;99.90
33328;DHT22;19692;52.998;9.116;2024-01-27T13:36:23;10.60;99.90
33328;DHT22;19692;52.998;9.116;2024-01-27T13:38:49;10.50;99.90
33328;DHT22;19692;52.998;9.116;2024-01-27T13:41:15;10.50;99.90
33328;DHT22;19692;52.998;9.116;2024-01-27T13:43:41;10.70;99.90
33328;DHT22;19692;52.998;9.116;2024-01-27T13:46:07;10.50;99.90
33328;DHT22;19692;52.998;9.116;2024-01-27T13:48:33;10.50;99.90
33328;DHT22;19692;52.998;9.116;2024-01-27T13:50:59;10.40;99.90
33328;DHT22;19692;52.998;9.116;2024-01-27T13:53:25;10.30;99.90
33328;DHT22;19692;52.998;9.116;2024-01-27T13:55:50;10.50;99.90
33328;DHT22;19692;52.998;9.116;2024-01-27T13:58:19;10.20;99.90
33328;DHT22;19692;52.998;9.116;2024-01-27T14:00:45;10.00;99.90
33328;DHT22;19692;52.998;9.116;2024-01-27T14:03:11;10.20;99.90
33328;DHT22;19692;52.998;9.116;2024-01-27T14:05:37;10.30;99.90
33328;DHT22;19692;52.998;9.116;2024-01-27T14:08:08;10.20;99.90
33328;DHT22;19692;52.998;9.116;2024-01-27T14:10:37;10.10;99.90
33328;DHT22;19692;52.998;9.116;2024-01-27T14:13:04;10.10;99.90
33328;DHT22;19692;52.998;9.116;2024-01-27T14:15:34;10.00;99.90
33328;DHT22;19692;52.998;9.116;2024-01-27T14:18:01;10.10;99.90
33328;DHT22;19692;52.998;9.116;2024-01-27T14:20:27;10.10;99.90
33328;DHT22;19692;52.998;9.116;2024-01-27T14:22:54;10.00;99.90
33328;DHT22;19692;52.998;9.116;2024-01-27T14:25:20;10.30;99.90
33328;DHT22;19692;52.998;9.116;2024-01-27T14:27:46;10.10;99.90
33328;DHT22;19692;52.998;9.116;2024-01-27T14:30:12;10.30;99.90
33328;DHT22;19692;52.998;9.116;2024-01-27T14:32:38;10.40;99.90
33328;DHT22;19692;52.998;9.116;2024-01-27T14:35:04;10.60;99.90
33328;DHT22;19692;52.998;9.116;2024-01-27T14:37:32;10.50;99.90
33328;DHT22;19692;52.998;9.116;2024-01-27T14:39:58;10.50;99.90
33328;DHT22;19692;52.998;9.116;2024-01-27T14:42:24;10.40;99.90
33328;DHT22;19692;52.998;9.116;2024-01-27T14:44:50;10.10;99.90
33328;DHT22;19692;52.998;9.116;2024-01-27T14:47:18;9.80;99.90
33328;DHT22;19692;52.998;9.116;2024-01-27T14:49:45;9.50;99.90
33328;DHT22;19692;52.998;9.116;2024-01-27T14:52:11;9.60;99.90
33328;DHT22;19692;52.998;9.116;2024-01-27T14:54:38;9.70;99.90
33328;DHT22;19692;52.998;9.116;2024-01-27T14:57:04;9.50;99.90
33328;DHT22;19692;52.998;9.116;2024-01-27T14:59:31;9.30;99.90
33328;DHT22;19692;52.998;9.116;2024-01-27T15:01:57;9.10;99.90
33328;DHT22;19692;52.998;9.116;2024-01-27T15:04:24;8.80;99.90
33328;DHT22;19692;52.998;9.116;2024-01-27T15:06:55;8.70;99.90
33328;DHT22;19692;52.998;9.116;2024-01-27T15:09:22;8.70;99.90
33328;DHT22;19692;52.998;9.116;2024-01-27T15:11:49;8.50;99.90
33328;DHT22;19692;52.998;9.116;2024-01-27T15:14:15;8.30;99.90
33328;DHT22;19692;52.998;9.116;2024-01-27T15:16:40;8.20;99.90
33328;DHT22;19692;52.998;9.116;2024-01-27T15:19:06;8.10;99.90
33328;DHT22;19692;52.998;9.116;2024-01-27T15:21:32;8.10;99.90
33328;DHT22;19692;52.998;9.116;2024-01-27T15:23:58;8.10;99.90
33328;DHT22;19692;52.998;9.116;2024-01-27T15:26:24;7.90;99.90
33328;DHT22;19692;52.998;9.116;2024-01-27T15:28:49;7.70;99.90
33328;DHT22;19692;52.998;9.116;2024-01-27T15:31:16;7.70;99.90
33328;DHT22;19692;52.998;9.116;2024-01-27T15:33:41;7.60;99.90
33328;DHT22;19692;52.998;9.116;2024-01-27T15:36:08;7.50;99.90
33328;DHT22;19692;52.998;9.116;2024-01-27T15:38:33;7.40;99.90
33328;DHT22;19692;52.998;9.116;2024-01-27T15:40:59;7.30;99.90